createdAt,value
2023-04-18T00:01:01.891Z,100044.13
2023-04-18T00:03:30.271Z,100041.31
2023-04-18T00:05:58.144Z,100031.03
2023-04-18T00:08:25.466Z,100031.13
2023-04-18T00:10:52.893Z,100032.69
2023-04-18T00:13:20.244Z,100036.38
2023-04-18T00:15:47.893Z,100038.59
2023-04-18T00:18:18.352Z,100024.47
2023-04-18T00:20:46.291Z,100027.63
2023-04-18T00:23:16.477Z,100048.47
2023-04-18T00:25:43.824Z,100037.56
2023-04-18T00:28:11.120Z,100027.00
2023-04-18T00:30:38.608Z,100029.00
2023-04-18T00:33:06.383Z,100032.16
2023-04-18T00:35:33.928Z,100042.28
2023-04-18T00:38:01.245Z,100041.84
2023-04-18T00:40:28.637Z,100023.94
2023-04-18T00:42:56.077Z,100042.09
2023-04-18T00:45:23.429Z,100036.44
2023-04-18T00:47:51.009Z,100045.06
2023-04-18T00:50:18.436Z,100049.31
2023-04-18T00:52:45.782Z,100050.09
2023-04-18T00:55:13.161Z,100045.47
2023-04-18T00:57:40.540Z,100040.41
2023-04-18T01:00:10.051Z,100045.31
2023-04-18T01:02:37.985Z,100047.66
2023-04-18T01:05:06.558Z,100043.13
2023-04-18T01:07:34.826Z,100044.88
2023-04-18T01:10:02.210Z,100044.25
2023-04-18T01:12:29.695Z,100037.34
2023-04-18T01:14:57.309Z,100038.47
2023-04-18T01:17:24.700Z,100036.03
2023-04-18T01:19:52.137Z,100026.25
2023-04-18T01:22:19.914Z,100019.78
2023-04-18T01:24:47.345Z,100036.25
2023-04-18T01:27:17.196Z,100023.13
2023-04-18T01:29:44.567Z,100039.19
2023-04-18T01:32:11.884Z,100038.94
2023-04-18T01:34:39.279Z,100030.31
2023-04-18T01:37:06.650Z,100037.66
2023-04-18T01:39:33.999Z,100047.19
2023-04-18T01:42:02.226Z,100046.50
2023-04-18T01:44:29.627Z,100043.34
2023-04-18T01:46:57.128Z,100047.72
2023-04-18T01:49:25.494Z,100043.63
2023-04-18T01:51:52.862Z,100039.59
2023-04-18T01:54:22.063Z,100042.41
2023-04-18T01:56:49.452Z,100049.63
2023-04-18T01:59:17.153Z,100043.00
2023-04-18T02:01:45.232Z,100050.44
2023-04-18T02:04:12.917Z,100048.88
2023-04-18T02:06:40.629Z,100034.03
2023-04-18T02:09:07.953Z,100045.03
2023-04-18T02:11:35.344Z,100022.00
2023-04-18T02:14:03.802Z,100045.31
2023-04-18T02:16:31.522Z,100048.25
2023-04-18T02:18:58.851Z,100048.59
2023-04-18T02:21:26.217Z,100030.63
2023-04-18T02:23:53.639Z,100045.66
2023-04-18T02:26:23.148Z,100045.66
2023-04-18T02:28:50.467Z,100037.78
2023-04-18T02:31:17.817Z,100053.88
2023-04-18T02:33:46.452Z,100035.50
2023-04-18T02:36:14.067Z,100030.44
2023-04-18T02:38:43.057Z,100030.88
2023-04-18T02:41:15.304Z,100032.19
2023-04-18T02:43:42.749Z,100050.78
2023-04-18T02:46:10.309Z,100047.22
2023-04-18T02:48:37.706Z,100050.06
2023-04-18T02:51:06.393Z,100026.59
2023-04-18T02:53:35.687Z,100040.66
2023-04-18T02:56:03.139Z,100036.28
2023-04-18T02:58:50.482Z,100044.94
2023-04-18T03:01:42.491Z,100033.03
2023-04-18T03:04:13.175Z,100049.63
2023-04-18T03:06:47.867Z,100041.94
2023-04-18T03:09:16.815Z,100047.53
2023-04-18T03:11:48.536Z,100048.88
2023-04-18T03:14:18.566Z,100055.16
2023-04-18T03:16:54.678Z,100048.16
2023-04-18T03:19:26.575Z,100051.50
2023-04-18T03:21:55.332Z,100057.94
2023-04-18T03:24:23.020Z,100055.66
2023-04-18T03:26:53.015Z,100062.31
2023-04-18T03:29:23.767Z,100037.19
2023-04-18T03:31:51.949Z,100059.75
2023-04-18T03:34:19.479Z,100052.00
2023-04-18T03:36:48.220Z,100054.28
2023-04-18T03:39:15.995Z,100060.56
2023-04-18T03:41:43.359Z,100061.16
2023-04-18T03:44:11.364Z,100052.31
2023-04-18T03:46:41.392Z,100064.78
2023-04-18T03:49:10.377Z,100064.34
2023-04-18T03:51:47.732Z,100057.91
2023-04-18T03:54:18.578Z,100060.19
2023-04-18T03:56:46.028Z,100059.56
2023-04-18T03:59:15.522Z,100069.28
2023-04-18T04:01:46.726Z,100069.28
2023-04-18T04:04:15.691Z,100048.28
2023-04-18T04:06:43.481Z,100067.84
2023-04-18T04:09:11.124Z,100074.75
2023-04-18T04:11:39.833Z,100069.13
2023-04-18T04:14:10.033Z,100076.78
2023-04-18T04:16:42.373Z,100079.66
2023-04-18T04:19:12.077Z,100075.13
2023-04-18T04:21:46.224Z,100074.44
2023-04-18T04:24:16.044Z,100081.63
2023-04-18T04:26:46.763Z,100078.56
2023-04-18T04:29:17.975Z,100066.06
2023-04-18T04:31:47.418Z,100089.56
2023-04-18T04:34:21.698Z,100089.97
2023-04-18T04:36:49.475Z,100085.72
2023-04-18T04:39:17.531Z,100086.56
2023-04-18T04:42:04.676Z,100088.88
2023-04-18T04:44:41.805Z,100099.41
2023-04-18T04:47:09.796Z,100096.28
2023-04-18T04:49:39.243Z,100103.53
2023-04-18T04:52:06.631Z,100097.34
2023-04-18T04:54:34.178Z,100082.75
2023-04-18T04:57:02.310Z,100110.00
2023-04-18T04:59:29.720Z,100088.91
2023-04-18T05:01:57.599Z,100102.72
2023-04-18T05:04:25.995Z,100116.28
2023-04-18T05:06:53.548Z,100108.69
2023-04-18T05:09:21.034Z,100101.81
2023-04-18T05:11:49.535Z,100116.63
2023-04-18T05:14:17.750Z,100091.41
2023-04-18T05:16:45.166Z,100122.97
2023-04-18T05:19:12.522Z,100117.56
2023-04-18T05:21:40.025Z,100090.53
2023-04-18T05:24:08.058Z,100097.03
2023-04-18T05:26:41.503Z,100120.84
2023-04-18T05:29:15.348Z,100087.03
2023-04-18T05:31:42.683Z,100111.44
2023-04-18T05:34:13.751Z,100098.66
2023-04-18T05:37:45.292Z,100063.47
2023-04-18T05:40:13.558Z,100108.31
2023-04-18T05:42:52.006Z,100099.44
2023-04-18T05:45:20.467Z,100114.38
2023-04-18T05:47:48.385Z,100122.00
2023-04-18T05:50:15.914Z,100136.59
2023-04-18T05:52:43.460Z,100127.97
2023-04-18T05:55:11.187Z,100139.56
2023-04-18T05:57:38.609Z,100126.13
2023-04-18T06:00:07.132Z,100140.88
2023-04-18T06:02:39.869Z,100115.53
2023-04-18T06:05:08.137Z,100105.06
2023-04-18T06:07:36.263Z,100129.06
2023-04-18T06:10:11.160Z,100139.34
2023-04-18T06:12:38.703Z,100141.47
2023-04-18T06:15:06.713Z,100139.91
2023-04-18T06:17:35.061Z,100122.69
2023-04-18T06:20:03.933Z,100140.00
2023-04-18T06:22:31.400Z,100145.22
2023-04-18T06:24:58.897Z,100152.59
2023-04-18T06:27:31.395Z,100149.66
2023-04-18T06:29:59.358Z,100155.84
2023-04-18T06:32:26.990Z,100156.75
2023-04-18T06:34:54.386Z,100164.13
2023-04-18T06:37:21.880Z,100141.47
2023-04-18T06:39:50.520Z,100154.50
2023-04-18T06:42:19.161Z,100165.47
2023-04-18T06:44:51.519Z,100157.06
2023-04-18T06:47:19.056Z,100141.84
2023-04-18T06:49:46.417Z,100171.75
2023-04-18T06:52:13.776Z,100168.06
2023-04-18T06:54:41.187Z,100168.47
2023-04-18T06:57:08.944Z,100165.06
2023-04-18T06:59:41.063Z,100170.66
2023-04-18T07:02:08.497Z,100166.88
2023-04-18T07:04:36.019Z,100171.53
2023-04-18T07:07:05.306Z,100174.50
2023-04-18T07:09:32.806Z,100181.69
2023-04-18T07:12:00.750Z,100162.50
2023-04-18T07:14:28.570Z,100183.84
2023-04-18T07:16:57.730Z,100186.31
2023-04-18T07:19:25.169Z,100194.06
2023-04-18T07:21:52.628Z,100168.78
2023-04-18T07:24:20.078Z,100190.44
2023-04-18T07:26:47.502Z,100190.69
2023-04-18T07:29:14.931Z,100200.72
2023-04-18T07:31:42.408Z,100193.06
2023-04-18T07:34:09.844Z,100199.63
2023-04-18T07:36:37.418Z,100194.84
2023-04-18T07:39:04.754Z,100198.00
2023-04-18T07:41:32.901Z,100205.34
2023-04-18T07:44:01.358Z,100189.56
2023-04-18T07:46:29.147Z,100206.19
2023-04-18T07:49:04.611Z,100204.06
2023-04-18T07:51:32.050Z,100206.66
2023-04-18T07:53:59.640Z,100177.66
2023-04-18T07:56:35.972Z,100188.09
2023-04-18T07:59:03.434Z,100206.72
2023-04-18T08:01:31.058Z,100223.19
2023-04-18T08:08:26.690Z,100202.88
2023-04-18T08:10:54.600Z,100179.41
2023-04-18T08:21:11.837Z,100208.88
2023-04-18T08:23:39.431Z,100172.94
2023-04-18T08:26:07.087Z,100232.69
2023-04-18T08:28:34.576Z,100238.06
2023-04-18T08:31:01.974Z,100233.88
2023-04-18T08:33:32.664Z,100238.59
2023-04-18T08:36:00.009Z,100234.00
2023-04-18T08:39:08.620Z,100187.47
2023-04-18T08:44:38.300Z,100242.50
2023-04-18T08:47:08.911Z,100243.69
2023-04-18T08:49:36.347Z,100237.06
2023-04-18T08:52:06.295Z,100247.63
2023-04-18T08:54:33.837Z,100240.19
2023-04-18T08:57:16.444Z,100241.78
2023-04-18T08:59:46.354Z,100216.88
2023-04-18T09:02:15.741Z,100208.72
2023-04-18T09:04:45.334Z,100247.81
2023-04-18T09:07:14.101Z,100249.84
2023-04-18T09:09:45.980Z,100247.41
2023-04-18T09:12:18.403Z,100237.84
2023-04-18T09:14:47.149Z,100237.13
2023-04-18T09:17:33.332Z,100255.31
2023-04-18T09:20:01.453Z,100244.19
2023-04-18T09:22:50.759Z,100263.19
2023-04-18T09:25:46.639Z,100244.72
2023-04-18T09:28:30.574Z,100253.84
2023-04-18T09:30:59.343Z,100234.47
2023-04-18T09:33:33.726Z,100248.78
2023-04-18T09:36:25.151Z,100247.56
2023-04-18T09:38:55.331Z,100247.81
2023-04-18T09:41:24.076Z,100258.00
2023-04-18T09:44:07.674Z,100253.34
2023-04-18T09:46:35.216Z,100205.63
2023-04-18T09:49:02.669Z,100254.81
2023-04-18T09:51:30.065Z,100250.47
2023-04-18T09:53:57.402Z,100244.91
2023-04-18T09:56:28.163Z,100245.13
2023-04-18T09:58:57.215Z,100244.22
2023-04-18T10:01:30.879Z,100227.75
2023-04-18T10:03:58.474Z,100247.44
2023-04-18T10:06:27.491Z,100239.13
2023-04-18T10:08:55.107Z,100249.91
2023-04-18T10:11:23.717Z,100253.44
2023-04-18T10:13:51.285Z,100248.31
2023-04-18T10:16:18.704Z,100250.34
2023-04-18T10:18:46.352Z,100248.25
2023-04-18T10:21:13.727Z,100248.75
2023-04-18T10:23:49.108Z,100248.19
2023-04-18T10:26:16.548Z,100248.41
2023-04-18T10:29:01.019Z,100240.53
2023-04-18T10:31:29.668Z,100251.75
2023-04-18T10:36:30.668Z,100249.69
2023-04-18T10:39:21.263Z,100240.25
2023-04-18T10:41:50.598Z,100197.97
2023-04-18T10:44:19.740Z,100236.59
2023-04-18T10:46:53.342Z,100225.16
2023-04-18T10:49:30.250Z,100221.66
2023-04-18T10:52:00.676Z,100229.81
2023-04-18T10:54:50.133Z,100215.41
2023-04-18T10:57:21.337Z,100227.09
2023-04-18T10:59:52.192Z,100222.75
2023-04-18T11:02:30.397Z,100203.28
2023-04-18T11:05:07.094Z,100201.00
2023-04-18T11:07:37.495Z,100181.06
2023-04-18T11:10:05.654Z,100196.72
2023-04-18T11:12:34.551Z,100188.06
2023-04-18T11:15:09.835Z,100168.19
2023-04-18T11:17:39.997Z,100178.69
2023-04-18T11:20:17.200Z,100204.16
2023-04-18T11:22:48.065Z,100195.13
2023-04-18T11:25:16.466Z,100197.03
2023-04-18T11:27:45.015Z,100198.56
2023-04-18T11:30:13.480Z,100208.66
2023-04-18T11:32:41.091Z,100193.91
2023-04-18T11:35:09.735Z,100196.97
2023-04-18T11:37:50.067Z,100187.94
2023-04-18T11:40:17.627Z,100186.19
2023-04-18T11:42:45.078Z,100183.66
2023-04-18T11:45:13.274Z,100182.75
2023-04-18T11:47:42.138Z,100178.34
2023-04-18T11:50:10.970Z,100188.50
2023-04-18T11:52:40.155Z,100183.81
2023-04-18T11:55:17.728Z,100181.88
2023-04-18T11:57:55.625Z,100192.41
2023-04-18T12:00:37.236Z,100191.59
2023-04-18T12:03:18.016Z,100184.59
2023-04-18T12:05:45.921Z,100199.41
2023-04-18T12:08:25.187Z,100186.13
2023-04-18T12:10:53.601Z,100181.44
2023-04-18T12:13:25.850Z,100193.50
2023-04-18T12:15:54.255Z,100161.38
2023-04-18T12:18:25.453Z,100182.88
2023-04-18T12:20:54.549Z,100178.88
2023-04-18T12:23:35.987Z,100175.84
2023-04-18T12:26:04.538Z,100170.03
2023-04-18T12:28:32.168Z,100167.28
2023-04-18T12:30:59.662Z,100177.50
2023-04-18T12:33:27.028Z,100173.59
2023-04-18T12:35:54.389Z,100179.06
2023-04-18T12:38:22.394Z,100167.72
2023-04-18T12:40:50.340Z,100168.13
2023-04-18T12:43:18.172Z,100178.69
2023-04-18T12:45:45.939Z,100178.34
2023-04-18T12:48:13.389Z,100178.31
2023-04-18T12:50:40.833Z,100178.34
2023-04-18T12:53:08.178Z,100165.06
2023-04-18T12:55:36.069Z,100167.81
2023-04-18T12:58:03.526Z,100165.81
2023-04-18T13:00:31.513Z,100155.28
2023-04-18T13:02:59.128Z,100142.75
2023-04-18T13:05:29.851Z,100156.81
2023-04-18T13:08:15.222Z,100136.88
2023-04-18T13:10:44.143Z,100154.09
2023-04-18T13:13:11.445Z,100136.91
2023-04-18T13:15:39.064Z,100113.09
2023-04-18T13:18:06.820Z,100147.84
2023-04-18T13:20:34.415Z,100140.44
2023-04-18T13:23:04.646Z,100146.66
2023-04-18T13:25:32.052Z,100141.59
2023-04-18T13:28:01.081Z,100138.84
2023-04-18T13:30:28.657Z,100132.22
2023-04-18T13:32:56.867Z,100133.41
2023-04-18T13:35:24.416Z,100130.56
2023-04-18T13:37:51.830Z,100130.00
2023-04-18T13:40:19.270Z,100123.88
2023-04-18T13:42:46.551Z,100121.25
2023-04-18T13:45:13.866Z,100108.72
2023-04-18T13:47:41.346Z,100105.66
2023-04-18T13:50:09.352Z,100105.72
2023-04-18T13:52:36.735Z,100096.31
2023-04-18T13:55:04.237Z,100088.72
2023-04-18T13:57:34.682Z,100091.25
2023-04-18T14:00:02.511Z,100077.69
2023-04-18T14:02:39.444Z,100085.56
2023-04-18T14:05:07.431Z,100082.53
2023-04-18T14:07:35.627Z,100090.59
2023-04-18T14:10:03.007Z,100092.50
2023-04-18T14:12:31.402Z,100091.53
2023-04-18T14:14:58.750Z,100089.63
2023-04-18T14:17:26.181Z,100085.03
2023-04-18T14:19:53.749Z,100086.13
2023-04-18T14:22:21.215Z,100081.16
2023-04-18T14:24:49.160Z,100091.22
2023-04-18T14:27:16.854Z,100083.19
2023-04-18T14:29:44.243Z,100090.78
2023-04-18T14:32:12.304Z,100070.91
2023-04-18T14:34:39.744Z,100079.69
2023-04-18T14:37:07.102Z,100063.22
2023-04-18T14:39:34.594Z,100079.66
2023-04-18T14:42:02.153Z,100086.75
2023-04-18T14:44:30.236Z,100091.38
2023-04-18T14:46:57.534Z,100088.44
2023-04-18T14:49:24.901Z,100086.66
2023-04-18T14:51:52.407Z,100099.00
2023-04-18T14:54:19.815Z,100106.97
2023-04-18T14:56:47.157Z,100106.63
2023-04-18T14:59:16.611Z,100118.03
2023-04-18T15:01:44.388Z,100123.59
2023-04-18T15:04:11.883Z,100129.03
2023-04-18T15:06:39.467Z,100116.53
2023-04-18T15:09:07.108Z,100125.94
2023-04-18T15:11:34.419Z,100110.34
2023-04-18T15:14:01.800Z,100113.88
2023-04-18T15:16:29.253Z,100125.56
2023-04-18T15:18:56.582Z,100118.16
2023-04-18T15:21:27.284Z,100106.41
2023-04-18T15:23:54.602Z,100137.66
2023-04-18T15:26:21.964Z,100134.50
2023-04-18T15:28:49.368Z,100136.06
2023-04-18T15:31:16.765Z,100135.63
2023-04-18T15:33:44.268Z,100128.16
2023-04-18T15:36:11.709Z,100148.78
2023-04-18T15:38:40.035Z,100144.75
2023-04-18T15:41:07.416Z,100148.97
2023-04-18T15:43:34.872Z,100148.34
2023-04-18T15:46:02.285Z,100147.19
2023-04-18T15:48:34.001Z,100156.06
2023-04-18T15:51:01.543Z,100156.44
2023-04-18T15:53:28.961Z,100147.78
2023-04-18T15:55:57.109Z,100157.91
2023-04-18T15:58:27.790Z,100157.91
2023-04-18T16:00:55.228Z,100155.50
2023-04-18T16:03:23.923Z,100153.91
2023-04-18T16:05:51.565Z,100137.81
2023-04-18T16:08:18.939Z,100159.25
2023-04-18T16:10:46.281Z,100157.38
2023-04-18T16:13:14.078Z,100162.41
2023-04-18T16:15:42.129Z,100163.41
2023-04-18T16:18:09.732Z,100160.63
2023-04-18T16:20:37.104Z,100170.72
2023-04-18T16:23:04.450Z,100162.03
2023-04-18T16:25:31.832Z,100171.31
2023-04-18T16:27:59.164Z,100178.69
2023-04-18T16:30:26.498Z,100166.63
2023-04-18T16:32:54.460Z,100182.91
2023-04-18T16:35:21.909Z,100188.31
2023-04-18T16:37:49.306Z,100192.16
2023-04-18T16:40:16.692Z,100185.38
2023-04-18T16:42:44.078Z,100193.91
2023-04-18T16:45:11.447Z,100195.22
2023-04-18T16:47:38.862Z,100199.81
2023-04-18T16:50:07.423Z,100193.91
2023-04-18T16:52:34.682Z,100194.16
2023-04-18T16:55:02.119Z,100186.09
2023-04-18T16:57:29.516Z,100186.38
2023-04-18T16:59:58.395Z,100184.06
2023-04-18T17:02:25.909Z,100181.56
2023-04-18T17:04:53.384Z,100173.00
2023-04-18T17:07:20.697Z,100201.72
2023-04-18T17:09:48.024Z,100190.91
2023-04-18T17:12:15.676Z,100196.34
2023-04-18T17:14:43.074Z,100197.13
2023-04-18T17:17:10.621Z,100183.69
2023-04-18T17:19:37.944Z,100186.38
2023-04-18T17:22:05.551Z,100188.31
2023-04-18T17:24:32.864Z,100181.34
2023-04-18T17:27:01.330Z,100175.97
2023-04-18T17:29:28.722Z,100180.91
2023-04-18T17:31:56.441Z,100178.63
2023-04-18T17:34:23.868Z,100165.72
2023-04-18T17:36:51.243Z,100168.16
2023-04-18T17:39:18.623Z,100172.28
2023-04-18T17:41:46.797Z,100164.09
2023-04-18T17:44:14.172Z,100173.09
2023-04-18T17:46:41.624Z,100162.00
2023-04-18T17:49:09.055Z,100179.09
2023-04-18T17:51:36.427Z,100180.66
2023-04-18T17:54:05.163Z,100177.88
2023-04-18T17:56:32.554Z,100172.97
2023-04-18T17:58:59.853Z,100185.53
2023-04-18T18:01:30.216Z,100183.59
2023-04-18T18:03:57.754Z,100184.31
2023-04-18T18:06:25.090Z,100182.03
2023-04-18T18:08:52.324Z,100181.59
2023-04-18T18:11:19.730Z,100187.78
2023-04-18T18:13:47.022Z,100184.69
2023-04-18T18:16:14.397Z,100183.41
2023-04-18T18:18:41.708Z,100187.88
2023-04-18T18:21:09.073Z,100167.50
2023-04-18T18:23:36.416Z,100188.25
2023-04-18T18:26:04.324Z,100194.06
2023-04-18T18:28:31.671Z,100186.22
2023-04-18T18:30:59.205Z,100188.50
2023-04-18T18:33:26.562Z,100158.69
2023-04-18T18:35:54.915Z,100172.72
2023-04-18T18:38:23.146Z,100185.16
2023-04-18T18:40:50.572Z,100183.63
2023-04-18T18:43:17.885Z,100182.75
2023-04-18T18:45:45.223Z,100186.66
2023-04-18T18:48:12.560Z,100195.03
2023-04-18T18:50:41.912Z,100195.44
2023-04-18T18:53:09.310Z,100195.88
2023-04-18T18:55:36.679Z,100185.31
2023-04-18T18:58:03.960Z,100198.53
2023-04-18T19:00:31.304Z,100193.88
2023-04-18T19:02:58.677Z,100197.66
2023-04-18T19:05:26.225Z,100198.88
2023-04-18T19:07:53.602Z,100195.66
2023-04-18T19:10:21.148Z,100196.50
2023-04-18T19:12:48.440Z,100189.50
2023-04-18T19:15:15.724Z,100184.28
2023-04-18T19:17:43.099Z,100196.38
2023-04-18T19:20:10.795Z,100179.22
2023-04-18T19:22:38.177Z,100188.03
2023-04-18T19:25:06.124Z,100190.69
2023-04-18T19:27:33.432Z,100183.09
2023-04-18T19:30:00.853Z,100164.06
2023-04-18T19:32:30.081Z,100187.56
2023-04-18T19:34:57.503Z,100176.81
2023-04-18T19:37:26.908Z,100180.59
2023-04-18T19:39:54.177Z,100184.53
2023-04-18T19:42:21.531Z,100181.41
2023-04-18T19:44:48.860Z,100173.19
2023-04-18T19:47:16.145Z,100181.31
2023-04-18T19:49:44.397Z,100179.69
2023-04-18T19:52:11.747Z,100177.53
2023-04-18T19:54:39.144Z,100166.72
2023-04-18T19:57:06.487Z,100176.50
2023-04-18T19:59:33.805Z,100161.63
2023-04-18T20:02:05.012Z,100171.06
2023-04-18T20:04:34.288Z,100167.91
2023-04-18T20:07:02.547Z,100169.00
2023-04-18T20:09:29.920Z,100147.75
2023-04-18T20:12:00.459Z,100168.50
2023-04-18T20:14:28.843Z,100174.78
2023-04-18T20:16:56.746Z,100170.44
2023-04-18T20:19:26.974Z,100171.31
2023-04-18T20:21:54.390Z,100172.44
2023-04-18T20:24:21.997Z,100167.31
2023-04-18T20:26:49.540Z,100151.84
2023-04-18T20:29:16.984Z,100171.75
2023-04-18T20:31:44.302Z,100166.03
2023-04-18T20:34:11.626Z,100176.59
2023-04-18T20:36:41.931Z,100165.75
2023-04-18T20:39:09.403Z,100145.50
2023-04-18T20:41:37.115Z,100169.81
2023-04-18T20:44:09.146Z,100168.63
2023-04-18T20:46:36.549Z,100163.69
2023-04-18T20:49:03.908Z,100166.84
2023-04-18T20:51:32.046Z,100168.50
2023-04-18T20:53:59.344Z,100161.78
2023-04-18T20:56:26.611Z,100171.91
2023-04-18T20:58:53.999Z,100164.97
2023-04-18T21:01:22.867Z,100163.78
2023-04-18T21:03:50.333Z,100169.56
2023-04-18T21:06:21.938Z,100167.84
2023-04-18T21:08:49.290Z,100142.78
2023-04-18T21:11:16.595Z,100150.34
2023-04-18T21:13:43.856Z,100156.94
2023-04-18T21:16:11.330Z,100146.94
2023-04-18T21:18:38.735Z,100139.94
2023-04-18T21:21:06.185Z,100143.56
2023-04-18T21:23:33.483Z,100142.78
2023-04-18T21:26:00.838Z,100140.34
2023-04-18T21:28:28.139Z,100142.66
2023-04-18T21:30:55.421Z,100144.78
2023-04-18T21:33:24.590Z,100139.41
2023-04-18T21:35:51.865Z,100144.06
2023-04-18T21:38:19.121Z,100138.66
2023-04-18T21:40:46.376Z,100132.53
2023-04-18T21:43:13.768Z,100133.28
2023-04-18T21:45:41.135Z,100129.44
2023-04-18T21:48:09.356Z,100124.22
2023-04-18T21:50:36.615Z,100133.81
2023-04-18T21:53:03.890Z,100132.34
2023-04-18T21:55:31.215Z,100129.19
2023-04-18T21:57:58.586Z,100131.47
2023-04-18T22:00:25.922Z,100134.47
2023-04-18T22:02:53.442Z,100126.75
2023-04-18T22:05:20.935Z,100120.56
2023-04-18T22:07:57.355Z,100123.69
2023-04-18T22:10:25.682Z,100116.91
2023-04-18T22:12:56.018Z,100112.78
2023-04-18T22:15:24.412Z,100116.47
2023-04-18T22:17:51.912Z,100109.56
2023-04-18T22:20:19.238Z,100113.34
2023-04-18T22:22:46.589Z,100107.19
2023-04-18T22:25:14.042Z,100110.22
2023-04-18T22:27:42.682Z,100083.44
2023-04-18T22:30:10.496Z,100096.88
2023-04-18T22:32:37.968Z,100099.84
2023-04-18T22:35:06.699Z,100077.78
2023-04-18T22:37:34.092Z,100099.06
2023-04-18T22:40:01.652Z,100097.50
2023-04-18T22:42:30.018Z,100100.50
2023-04-18T22:44:57.627Z,100090.97
2023-04-18T22:47:24.971Z,100100.97
2023-04-18T22:49:53.068Z,100075.94
2023-04-18T22:52:20.423Z,100097.59
2023-04-18T22:54:47.684Z,100092.88
2023-04-18T22:57:14.932Z,100093.00
2023-04-18T22:59:42.244Z,100085.47
2023-04-18T23:02:10.556Z,100090.19
2023-04-18T23:04:38.116Z,100068.81
2023-04-18T23:07:05.476Z,100082.69
2023-04-18T23:09:33.174Z,100070.94
2023-04-18T23:12:00.437Z,100087.19
2023-04-18T23:14:28.235Z,100085.94
2023-04-18T23:16:55.623Z,100068.16
2023-04-18T23:19:22.940Z,100072.94
2023-04-18T23:21:50.370Z,100058.03
2023-04-18T23:24:17.640Z,100066.22
2023-04-18T23:26:44.990Z,100067.25
2023-04-18T23:29:12.238Z,100066.81
2023-04-18T23:31:39.502Z,100067.69
2023-04-18T23:34:06.793Z,100065.50
2023-04-18T23:36:34.191Z,100047.50
2023-04-18T23:39:02.176Z,100041.72
2023-04-18T23:41:29.464Z,100053.00
2023-04-18T23:43:56.760Z,100031.09
2023-04-18T23:46:24.092Z,100030.66
2023-04-18T23:48:52.931Z,100037.81
2023-04-18T23:51:21.601Z,100026.66
2023-04-18T23:53:48.897Z,100037.38
2023-04-18T23:56:16.226Z,100027.50
2023-04-18T23:58:43.551Z,100030.22
